sensor_id;sensor_type;location;lat;lon;timestamp;pressure;altitude;pressure_sealevel;temperature;humidity
28701;BME280;15877;52.344;16.790;2022-12-26T00:01:59;100360.54;;;9.68;86.72
28701;BME280;15877;52.344;16.790;2022-12-26T00:04:29;100340.74;;;9.66;86.60
28701;BME280;15877;52.344;16.790;2022-12-26T00:07:18;100331.59;;;9.55;87.40
28701;BME280;15877;52.344;16.790;2022-12-26T00:09:47;100323.92;;;9.68;87.21
28701;BME280;15877;52.344;16.790;2022-12-26T00:12:16;100309.75;;;9.66;87.27
28701;BME280;15877;52.344;16.790;2022-12-26T00:14:45;100295.00;;;9.69;87.01
28701;BME280;15877;52.344;16.790;2022-12-26T00:17:14;100302.02;;;9.74;86.86
28701;BME280;15877;52.344;16.790;2022-12-26T00:19:44;100315.51;;;9.75;86.74
28701;BME280;15877;52.344;16.790;2022-12-26T00:22:13;100324.92;;;9.84;86.38
28701;BME280;15877;52.344;16.790;2022-12-26T00:24:43;100321.73;;;9.73;86.55
28701;BME280;15877;52.344;16.790;2022-12-26T00:27:19;100304.41;;;9.44;87.78
28701;BME280;15877;52.344;16.790;2022-12-26T00:29:48;100321.56;;;9.59;88.18
28701;BME280;15877;52.344;16.790;2022-12-26T00:32:17;100313.11;;;9.70;87.99
28701;BME280;15877;52.344;16.790;2022-12-26T00:34:46;100317.42;;;9.68;87.69
28701;BME280;15877;52.344;16.790;2022-12-26T00:37:15;100325.21;;;9.60;88.19
28701;BME280;15877;52.344;16.790;2022-12-26T00:39:45;100299.85;;;9.46;88.54
28701;BME280;15877;52.344;16.790;2022-12-26T00:42:14;100315.23;;;9.73;87.79
28701;BME280;15877;52.344;16.790;2022-12-26T00:44:43;100312.27;;;9.72;87.72
28701;BME280;15877;52.344;16.790;2022-12-26T00:47:12;100315.52;;;9.68;87.86
28701;BME280;15877;52.344;16.790;2022-12-26T00:49:41;100309.35;;;9.66;88.03
28701;BME280;15877;52.344;16.790;2022-12-26T00:52:30;100301.31;;;9.58;88.49
28701;BME280;15877;52.344;16.790;2022-12-26T00:54:59;100293.48;;;9.61;88.62
28701;BME280;15877;52.344;16.790;2022-12-26T00:57:29;100299.84;;;9.59;88.67
28701;BME280;15877;52.344;16.790;2022-12-26T00:59:58;100306.40;;;9.61;88.70
28701;BME280;15877;52.344;16.790;2022-12-26T01:02:27;100302.48;;;9.56;88.86
28701;BME280;15877;52.344;16.790;2022-12-26T01:05:10;100296.47;;;9.60;88.81
28701;BME280;15877;52.344;16.790;2022-12-26T01:07:39;100289.96;;;9.56;88.89
28701;BME280;15877;52.344;16.790;2022-12-26T01:10:28;100289.77;;;9.58;88.88
28701;BME280;15877;52.344;16.790;2022-12-26T01:12:57;100289.05;;;9.52;89.21
28701;BME280;15877;52.344;16.790;2022-12-26T01:15:26;100296.72;;;9.44;89.50
28701;BME280;15877;52.344;16.790;2022-12-26T01:17:57;100294.95;;;9.40;90.00
28701;BME280;15877;52.344;16.790;2022-12-26T01:20:27;100283.88;;;9.40;89.87
28701;BME280;15877;52.344;16.790;2022-12-26T01:22:56;100294.55;;;9.63;89.32
28701;BME280;15877;52.344;16.790;2022-12-26T01:25:26;100290.65;;;9.59;89.01
28701;BME280;15877;52.344;16.790;2022-12-26T01:27:55;100290.91;;;9.53;89.29
28701;BME280;15877;52.344;16.790;2022-12-26T01:30:25;100263.35;;;9.30;89.90
28701;BME280;15877;52.344;16.790;2022-12-26T01:32:54;100264.09;;;9.55;89.84
28701;BME280;15877;52.344;16.790;2022-12-26T01:35:24;100245.71;;;9.51;89.63
28701;BME280;15877;52.344;16.790;2022-12-26T01:37:53;100232.46;;;9.51;89.89
28701;BME280;15877;52.344;16.790;2022-12-26T01:40:28;100230.20;;;9.63;89.53
28701;BME280;15877;52.344;16.790;2022-12-26T01:42:58;100222.98;;;9.58;89.35
28701;BME280;15877;52.344;16.790;2022-12-26T01:45:28;100205.52;;;9.51;89.56
28701;BME280;15877;52.344;16.790;2022-12-26T01:48:02;100207.23;;;9.60;89.42
28701;BME280;15877;52.344;16.790;2022-12-26T01:50:37;100210.99;;;9.54;89.36
28701;BME280;15877;52.344;16.790;2022-12-26T01:53:15;100205.23;;;9.55;89.59
28701;BME280;15877;52.344;16.790;2022-12-26T01:55:48;100197.81;;;9.39;90.20
28701;BME280;15877;52.344;16.790;2022-12-26T01:58:22;100210.77;;;9.45;90.34
28701;BME280;15877;52.344;16.790;2022-12-26T02:00:54;100210.42;;;9.57;89.81
28701;BME280;15877;52.344;16.790;2022-12-26T02:03:24;100207.61;;;9.52;89.87
28701;BME280;15877;52.344;16.790;2022-12-26T02:06:13;100203.27;;;9.56;89.91
28701;BME280;15877;52.344;16.790;2022-12-26T02:08:43;100194.56;;;9.47;90.16
28701;BME280;15877;52.344;16.790;2022-12-26T02:11:16;100189.36;;;9.62;89.66
28701;BME280;15877;52.344;16.790;2022-12-26T02:13:47;100175.89;;;9.50;90.13
28701;BME280;15877;52.344;16.790;2022-12-26T02:16:17;100157.98;;;9.54;89.79
28701;BME280;15877;52.344;16.790;2022-12-26T02:18:47;100169.65;;;9.55;90.04
28701;BME280;15877;52.344;16.790;2022-12-26T02:21:47;100169.95;;;9.65;89.94
28701;BME280;15877;52.344;16.790;2022-12-26T02:24:39;100158.30;;;9.66;89.71
28701;BME280;15877;52.344;16.790;2022-12-26T02:27:22;100162.23;;;9.61;90.28
28701;BME280;15877;52.344;16.790;2022-12-26T02:30:10;100155.17;;;9.71;89.75
28701;BME280;15877;52.344;16.790;2022-12-26T02:33:11;100147.59;;;9.65;89.93
28701;BME280;15877;52.344;16.790;2022-12-26T02:35:58;100148.09;;;9.66;89.99
28701;BME280;15877;52.344;16.790;2022-12-26T02:38:36;100131.80;;;9.64;90.17
28701;BME280;15877;52.344;16.790;2022-12-26T02:41:19;100130.98;;;9.66;89.93
28701;BME280;15877;52.344;16.790;2022-12-26T02:44:02;100123.75;;;9.77;89.61
28701;BME280;15877;52.344;16.790;2022-12-26T02:47:01;100117.73;;;9.77;89.23
28701;BME280;15877;52.344;16.790;2022-12-26T02:49:45;100112.16;;;9.76;89.60
28701;BME280;15877;52.344;16.790;2022-12-26T02:52:45;100114.91;;;9.82;89.12
28701;BME280;15877;52.344;16.790;2022-12-26T02:55:35;100111.52;;;9.84;88.92
28701;BME280;15877;52.344;16.790;2022-12-26T02:58:29;100110.44;;;9.85;88.85
28701;BME280;15877;52.344;16.790;2022-12-26T03:01:23;100110.22;;;9.75;89.14
28701;BME280;15877;52.344;16.790;2022-12-26T03:04:16;100096.70;;;9.80;89.38
28701;BME280;15877;52.344;16.790;2022-12-26T03:07:08;100092.48;;;9.83;89.12
28701;BME280;15877;52.344;16.790;2022-12-26T03:10:00;100098.94;;;9.73;89.68
28701;BME280;15877;52.344;16.790;2022-12-26T03:12:54;100089.14;;;9.75;89.85
28701;BME280;15877;52.344;16.790;2022-12-26T03:15:43;100082.13;;;9.76;89.87
28701;BME280;15877;52.344;16.790;2022-12-26T03:18:33;100077.15;;;9.70;89.96
28701;BME280;15877;52.344;16.790;2022-12-26T03:21:26;100092.56;;;9.84;89.74
28701;BME280;15877;52.344;16.790;2022-12-26T03:24:00;100087.85;;;9.86;89.54
28701;BME280;15877;52.344;16.790;2022-12-26T03:26:31;100080.61;;;9.89;89.48
28701;BME280;15877;52.344;16.790;2022-12-26T03:29:10;100085.17;;;9.91;89.39
28701;BME280;15877;52.344;16.790;2022-12-26T03:32:01;100091.42;;;9.91;89.19
28701;BME280;15877;52.344;16.790;2022-12-26T03:34:30;100088.19;;;9.91;89.32
28701;BME280;15877;52.344;16.790;2022-12-26T03:37:16;100088.02;;;9.91;89.35
28701;BME280;15877;52.344;16.790;2022-12-26T03:39:56;100088.52;;;10.01;88.96
28701;BME280;15877;52.344;16.790;2022-12-26T03:42:53;100086.43;;;10.03;88.76
28701;BME280;15877;52.344;16.790;2022-12-26T03:45:43;100072.67;;;9.92;88.58
28701;BME280;15877;52.344;16.790;2022-12-26T03:48:37;100085.88;;;10.03;88.90
28701;BME280;15877;52.344;16.790;2022-12-26T03:51:32;100083.91;;;10.04;88.56
28701;BME280;15877;52.344;16.790;2022-12-26T03:54:25;100082.55;;;10.03;88.59
28701;BME280;15877;52.344;16.790;2022-12-26T03:57:19;100084.62;;;10.00;88.58
28701;BME280;15877;52.344;16.790;2022-12-26T04:00:10;100086.52;;;10.07;88.19
28701;BME280;15877;52.344;16.790;2022-12-26T04:03:01;100090.59;;;9.93;88.84
28701;BME280;15877;52.344;16.790;2022-12-26T04:05:53;100095.16;;;9.96;88.89
28701;BME280;15877;52.344;16.790;2022-12-26T04:08:52;100092.81;;;10.05;88.65
28701;BME280;15877;52.344;16.790;2022-12-26T04:11:43;100095.39;;;10.08;88.15
28701;BME280;15877;52.344;16.790;2022-12-26T04:14:39;100097.50;;;10.10;88.08
28701;BME280;15877;52.344;16.790;2022-12-26T04:17:44;100096.78;;;9.93;89.06
28701;BME280;15877;52.344;16.790;2022-12-26T04:20:39;100091.09;;;9.98;89.11
28701;BME280;15877;52.344;16.790;2022-12-26T04:23:14;100087.36;;;9.98;88.91
28701;BME280;15877;52.344;16.790;2022-12-26T04:26:06;100088.76;;;10.00;88.93
28701;BME280;15877;52.344;16.790;2022-12-26T04:28:54;100087.95;;;10.11;88.54
28701;BME280;15877;52.344;16.790;2022-12-26T04:31:46;100079.30;;;10.15;88.00
28701;BME280;15877;52.344;16.790;2022-12-26T04:34:40;100045.01;;;9.91;88.05
28701;BME280;15877;52.344;16.790;2022-12-26T04:37:31;100075.12;;;10.12;87.98
28701;BME280;15877;52.344;16.790;2022-12-26T04:40:23;100069.77;;;10.10;88.07
28701;BME280;15877;52.344;16.790;2022-12-26T04:43:12;100048.99;;;10.06;87.53
28701;BME280;15877;52.344;16.790;2022-12-26T04:46:20;100070.17;;;10.19;87.28
28701;BME280;15877;52.344;16.790;2022-12-26T04:48:52;100071.29;;;10.24;86.93
28701;BME280;15877;52.344;16.790;2022-12-26T04:51:39;100070.66;;;10.24;86.56
28701;BME280;15877;52.344;16.790;2022-12-26T04:54:08;100075.73;;;10.15;86.86
28701;BME280;15877;52.344;16.790;2022-12-26T04:56:38;100076.30;;;10.15;87.18
28701;BME280;15877;52.344;16.790;2022-12-26T04:59:07;100078.39;;;10.09;87.93
28701;BME280;15877;52.344;16.790;2022-12-26T05:01:36;100076.74;;;9.99;88.75
28701;BME280;15877;52.344;16.790;2022-12-26T05:04:24;100068.29;;;10.08;88.76
28701;BME280;15877;52.344;16.790;2022-12-26T05:07:15;100064.75;;;10.09;88.85
28701;BME280;15877;52.344;16.790;2022-12-26T05:10:04;100060.09;;;10.14;88.78
28701;BME280;15877;52.344;16.790;2022-12-26T05:12:34;100054.98;;;10.01;89.47
28701;BME280;15877;52.344;16.790;2022-12-26T05:15:04;100059.02;;;10.09;89.72
28701;BME280;15877;52.344;16.790;2022-12-26T05:17:34;100065.27;;;10.20;89.21
28701;BME280;15877;52.344;16.790;2022-12-26T05:20:21;100076.17;;;10.22;88.75
28701;BME280;15877;52.344;16.790;2022-12-26T05:23:06;100074.25;;;10.29;88.52
28701;BME280;15877;52.344;16.790;2022-12-26T05:25:57;100056.58;;;10.21;88.50
28701;BME280;15877;52.344;16.790;2022-12-26T05:28:47;100068.05;;;10.25;88.90
28701;BME280;15877;52.344;16.790;2022-12-26T05:31:17;100064.88;;;10.26;89.26
28701;BME280;15877;52.344;16.790;2022-12-26T05:33:46;100060.60;;;10.29;89.38
28701;BME280;15877;52.344;16.790;2022-12-26T05:36:37;100060.77;;;10.29;89.39
28701;BME280;15877;52.344;16.790;2022-12-26T05:39:07;100064.69;;;10.37;89.16
28701;BME280;15877;52.344;16.790;2022-12-26T05:41:37;100065.35;;;10.39;89.14
28701;BME280;15877;52.344;16.790;2022-12-26T05:44:08;100070.58;;;10.43;88.86
28701;BME280;15877;52.344;16.790;2022-12-26T05:46:39;100075.73;;;10.42;88.93
28701;BME280;15877;52.344;16.790;2022-12-26T05:49:10;100072.78;;;10.41;89.05
28701;BME280;15877;52.344;16.790;2022-12-26T05:51:40;100078.02;;;10.41;89.13
28701;BME280;15877;52.344;16.790;2022-12-26T05:54:09;100066.65;;;10.39;89.29
28701;BME280;15877;52.344;16.790;2022-12-26T05:56:39;100069.79;;;10.38;89.35
28701;BME280;15877;52.344;16.790;2022-12-26T05:59:15;100067.65;;;10.29;89.52
28701;BME280;15877;52.344;16.790;2022-12-26T06:01:44;100063.09;;;10.27;90.00
28701;BME280;15877;52.344;16.790;2022-12-26T06:04:14;100066.75;;;10.32;89.77
28701;BME280;15877;52.344;16.790;2022-12-26T06:06:43;100072.80;;;10.43;89.13
28701;BME280;15877;52.344;16.790;2022-12-26T06:09:12;100075.42;;;10.43;89.09
28701;BME280;15877;52.344;16.790;2022-12-26T06:11:42;100074.42;;;10.40;89.53
28701;BME280;15877;52.344;16.790;2022-12-26T06:14:16;100074.39;;;10.38;89.57
28701;BME280;15877;52.344;16.790;2022-12-26T06:16:46;100076.96;;;10.35;89.94
28701;BME280;15877;52.344;16.790;2022-12-26T06:19:15;100071.83;;;10.42;89.81
28701;BME280;15877;52.344;16.790;2022-12-26T06:21:45;100060.34;;;10.24;90.40
28701;BME280;15877;52.344;16.790;2022-12-26T06:24:13;100070.14;;;10.31;90.77
28701;BME280;15877;52.344;16.790;2022-12-26T06:26:43;100069.55;;;10.39;90.47
28701;BME280;15877;52.344;16.790;2022-12-26T06:29:12;100072.02;;;10.29;91.25
28701;BME280;15877;52.344;16.790;2022-12-26T06:31:41;100070.83;;;10.30;91.19
28701;BME280;15877;52.344;16.790;2022-12-26T06:34:10;100062.24;;;10.33;91.24
28701;BME280;15877;52.344;16.790;2022-12-26T06:36:40;100058.31;;;10.34;91.13
28701;BME280;15877;52.344;16.790;2022-12-26T06:39:09;100063.85;;;10.39;90.63
28701;BME280;15877;52.344;16.790;2022-12-26T06:41:38;100063.42;;;10.37;90.66
28701;BME280;15877;52.344;16.790;2022-12-26T06:44:09;100042.33;;;10.23;90.80
28701;BME280;15877;52.344;16.790;2022-12-26T06:46:46;100055.84;;;10.29;90.47
28701;BME280;15877;52.344;16.790;2022-12-26T06:49:15;100060.30;;;10.40;90.21
28701;BME280;15877;52.344;16.790;2022-12-26T06:51:44;100053.92;;;10.33;89.96
28701;BME280;15877;52.344;16.790;2022-12-26T06:54:14;100062.01;;;10.28;90.27
28701;BME280;15877;52.344;16.790;2022-12-26T06:56:43;100060.90;;;10.38;89.96
28701;BME280;15877;52.344;16.790;2022-12-26T06:59:13;100059.41;;;10.30;89.67
28701;BME280;15877;52.344;16.790;2022-12-26T07:01:42;100062.73;;;10.25;90.02
28701;BME280;15877;52.344;16.790;2022-12-26T07:04:12;100060.44;;;10.24;90.04
28701;BME280;15877;52.344;16.790;2022-12-26T07:06:41;100063.41;;;10.31;89.82
28701;BME280;15877;52.344;16.790;2022-12-26T07:09:12;100070.17;;;10.33;89.89
28701;BME280;15877;52.344;16.790;2022-12-26T07:11:44;100076.14;;;10.38;89.79
28701;BME280;15877;52.344;16.790;2022-12-26T07:14:14;100082.29;;;10.40;89.74
28701;BME280;15877;52.344;16.790;2022-12-26T07:16:44;100084.02;;;10.40;90.11
28701;BME280;15877;52.344;16.790;2022-12-26T07:19:14;100077.14;;;10.31;90.83
28701;BME280;15877;52.344;16.790;2022-12-26T07:21:43;100077.60;;;10.45;90.14
28701;BME280;15877;52.344;16.790;2022-12-26T07:24:15;100070.81;;;10.28;90.74
28701;BME280;15877;52.344;16.790;2022-12-26T07:26:45;100041.44;;;10.27;90.82
28701;BME280;15877;52.344;16.790;2022-12-26T07:29:15;100063.57;;;10.36;90.97
28701;BME280;15877;52.344;16.790;2022-12-26T07:31:44;100057.71;;;10.37;91.04
28701;BME280;15877;52.344;16.790;2022-12-26T07:34:14;100051.75;;;10.36;91.31
28701;BME280;15877;52.344;16.790;2022-12-26T07:36:43;100048.61;;;10.34;91.52
28701;BME280;15877;52.344;16.790;2022-12-26T07:39:13;100053.95;;;10.40;91.18
28701;BME280;15877;52.344;16.790;2022-12-26T07:41:42;100068.19;;;10.52;90.99
28701;BME280;15877;52.344;16.790;2022-12-26T07:44:28;100058.41;;;10.65;90.00
28701;BME280;15877;52.344;16.790;2022-12-26T07:46:57;100051.30;;;10.62;89.77
28701;BME280;15877;52.344;16.790;2022-12-26T07:49:27;100052.70;;;10.55;90.15
28701;BME280;15877;52.344;16.790;2022-12-26T07:51:56;100067.11;;;10.54;90.18
28701;BME280;15877;52.344;16.790;2022-12-26T07:54:25;100077.36;;;10.59;89.87
28701;BME280;15877;52.344;16.790;2022-12-26T07:56:57;100078.79;;;10.68;89.50
28701;BME280;15877;52.344;16.790;2022-12-26T07:59:46;100087.86;;;10.70;89.13
28701;BME280;15877;52.344;16.790;2022-12-26T08:02:19;100096.55;;;10.68;88.79
28701;BME280;15877;52.344;16.790;2022-12-26T08:04:49;100103.66;;;10.57;89.12
28701;BME280;15877;52.344;16.790;2022-12-26T08:07:18;100116.65;;;10.60;89.57
28701;BME280;15877;52.344;16.790;2022-12-26T08:09:48;100125.77;;;10.59;89.58
28701;BME280;15877;52.344;16.790;2022-12-26T08:12:17;100131.53;;;10.67;89.66
28701;BME280;15877;52.344;16.790;2022-12-26T08:14:49;100128.05;;;10.68;89.62
28701;BME280;15877;52.344;16.790;2022-12-26T08:17:18;100127.14;;;10.69;89.96
28701;BME280;15877;52.344;16.790;2022-12-26T08:19:47;100120.73;;;10.76;89.79
28701;BME280;15877;52.344;16.790;2022-12-26T08:22:16;100119.59;;;10.89;89.43
28701;BME280;15877;52.344;16.790;2022-12-26T08:24:47;100128.19;;;10.85;89.55
28701;BME280;15877;52.344;16.790;2022-12-26T08:27:16;100130.02;;;10.85;89.79
28701;BME280;15877;52.344;16.790;2022-12-26T08:40:11;100107.40;;;11.01;89.94
28701;BME280;15877;52.344;16.790;2022-12-26T08:42:49;100110.63;;;11.00;90.08
28701;BME280;15877;52.344;16.790;2022-12-26T08:45:41;100119.84;;;11.00;90.41
28701;BME280;15877;52.344;16.790;2022-12-26T08:48:14;100114.98;;;11.09;90.59
28701;BME280;15877;52.344;16.790;2022-12-26T08:50:47;100114.34;;;11.26;90.06
28701;BME280;15877;52.344;16.790;2022-12-26T08:53:20;100108.74;;;11.23;90.32
28701;BME280;15877;52.344;16.790;2022-12-26T08:55:53;100114.80;;;11.19;90.86
28701;BME280;15877;52.344;16.790;2022-12-26T08:58:26;100118.95;;;11.15;90.72
28701;BME280;15877;52.344;16.790;2022-12-26T09:01:08;100120.39;;;11.15;90.46
28701;BME280;15877;52.344;16.790;2022-12-26T09:03:42;100128.92;;;11.24;89.71
28701;BME280;15877;52.344;16.790;2022-12-26T09:06:15;100133.11;;;11.33;88.97
28701;BME280;15877;52.344;16.790;2022-12-26T09:08:48;100117.25;;;11.13;89.19
28701;BME280;15877;52.344;16.790;2022-12-26T09:11:23;100114.92;;;11.22;88.99
28701;BME280;15877;52.344;16.790;2022-12-26T09:14:01;100131.73;;;11.29;89.16
28701;BME280;15877;52.344;16.790;2022-12-26T09:16:40;100131.05;;;11.26;89.72
28701;BME280;15877;52.344;16.790;2022-12-26T09:19:21;100127.23;;;11.22;90.20
28701;BME280;15877;52.344;16.790;2022-12-26T09:21:55;100125.55;;;11.32;90.15
28701;BME280;15877;52.344;16.790;2022-12-26T09:24:42;100127.95;;;11.33;90.45
28701;BME280;15877;52.344;16.790;2022-12-26T09:27:14;100131.41;;;11.36;90.78
28701;BME280;15877;52.344;16.790;2022-12-26T09:29:47;100141.84;;;11.37;91.12
28701;BME280;15877;52.344;16.790;2022-12-26T09:32:20;100137.58;;;11.40;91.03
28701;BME280;15877;52.344;16.790;2022-12-26T09:34:52;100143.98;;;11.42;90.78
28701;BME280;15877;52.344;16.790;2022-12-26T09:37:24;100146.11;;;11.47;90.91
28701;BME280;15877;52.344;16.790;2022-12-26T09:40:00;100156.26;;;11.56;91.08
28701;BME280;15877;52.344;16.790;2022-12-26T09:42:46;100155.96;;;11.58;90.92
28701;BME280;15877;52.344;16.790;2022-12-26T09:45:32;100149.61;;;11.65;91.03
28701;BME280;15877;52.344;16.790;2022-12-26T09:48:17;100146.27;;;11.68;91.40
28701;BME280;15877;52.344;16.790;2022-12-26T09:50:55;100141.38;;;11.83;90.92
28701;BME280;15877;52.344;16.790;2022-12-26T09:53:32;100134.29;;;11.77;90.54
28701;BME280;15877;52.344;16.790;2022-12-26T09:56:10;100134.48;;;11.74;90.44
28701;BME280;15877;52.344;16.790;2022-12-26T09:59:06;100131.81;;;11.77;90.62
28701;BME280;15877;52.344;16.790;2022-12-26T10:01:43;100123.21;;;11.95;90.25
28701;BME280;15877;52.344;16.790;2022-12-26T10:04:23;100123.55;;;12.03;90.40
28701;BME280;15877;52.344;16.790;2022-12-26T10:07:16;100118.77;;;12.17;90.59
28701;BME280;15877;52.344;16.790;2022-12-26T10:09:58;100115.77;;;12.12;89.75
28701;BME280;15877;52.344;16.790;2022-12-26T10:12:40;100109.76;;;12.08;89.50
28701;BME280;15877;52.344;16.790;2022-12-26T10:15:37;100117.01;;;12.16;88.70
28701;BME280;15877;52.344;16.790;2022-12-26T10:18:26;100113.23;;;12.21;88.16
28701;BME280;15877;52.344;16.790;2022-12-26T10:21:14;100108.89;;;12.02;89.34
28701;BME280;15877;52.344;16.790;2022-12-26T10:23:53;100108.40;;;12.08;89.60
28701;BME280;15877;52.344;16.790;2022-12-26T10:26:31;100109.54;;;12.03;89.90
28701;BME280;15877;52.344;16.790;2022-12-26T10:29:13;100122.08;;;12.01;90.00
28701;BME280;15877;52.344;16.790;2022-12-26T10:31:53;100126.02;;;12.04;90.06
28701;BME280;15877;52.344;16.790;2022-12-26T10:34:29;100123.08;;;11.98;90.32
28701;BME280;15877;52.344;16.790;2022-12-26T10:37:09;100130.04;;;12.08;90.04
28701;BME280;15877;52.344;16.790;2022-12-26T10:39:50;100128.77;;;12.15;89.75
28701;BME280;15877;52.344;16.790;2022-12-26T10:42:28;100119.95;;;12.25;89.27
28701;BME280;15877;52.344;16.790;2022-12-26T10:45:03;100101.06;;;12.13;89.29
28701;BME280;15877;52.344;16.790;2022-12-26T10:47:45;100110.61;;;12.21;89.23
28701;BME280;15877;52.344;16.790;2022-12-26T10:50:21;100114.13;;;12.23;88.86
28701;BME280;15877;52.344;16.790;2022-12-26T10:52:58;100111.14;;;12.18;89.24
28701;BME280;15877;52.344;16.790;2022-12-26T10:55:33;100111.79;;;12.12;89.35
28701;BME280;15877;52.344;16.790;2022-12-26T10:58:06;100101.15;;;12.07;89.79
28701;BME280;15877;52.344;16.790;2022-12-26T11:00:43;100106.45;;;12.20;89.53
28701;BME280;15877;52.344;16.790;2022-12-26T11:03:18;100087.02;;;12.02;90.27
28701;BME280;15877;52.344;16.790;2022-12-26T11:05:54;100105.09;;;12.19;89.97
28701;BME280;15877;52.344;16.790;2022-12-26T11:08:51;100109.12;;;12.24;89.97
28701;BME280;15877;52.344;16.790;2022-12-26T11:11:26;100111.92;;;12.24;89.92
28701;BME280;15877;52.344;16.790;2022-12-26T11:14:30;100118.94;;;12.20;90.19
28701;BME280;15877;52.344;16.790;2022-12-26T11:17:07;100119.55;;;12.25;90.15
28701;BME280;15877;52.344;16.790;2022-12-26T11:19:42;100120.58;;;12.24;90.20
28701;BME280;15877;52.344;16.790;2022-12-26T11:22:27;100124.49;;;12.24;90.78
28701;BME280;15877;52.344;16.790;2022-12-26T11:25:15;100129.73;;;12.15;91.49
28701;BME280;15877;52.344;16.790;2022-12-26T11:27:51;100126.27;;;12.06;92.39
28701;BME280;15877;52.344;16.790;2022-12-26T11:30:28;100129.90;;;12.17;92.16
28701;BME280;15877;52.344;16.790;2022-12-26T11:33:17;100130.21;;;12.02;92.86
28701;BME280;15877;52.344;16.790;2022-12-26T11:35:56;100138.02;;;12.02;93.26
28701;BME280;15877;52.344;16.790;2022-12-26T11:38:41;100138.58;;;11.97;93.68
28701;BME280;15877;52.344;16.790;2022-12-26T11:41:18;100140.39;;;12.02;93.70
28701;BME280;15877;52.344;16.790;2022-12-26T11:44:13;100138.13;;;11.98;94.44
28701;BME280;15877;52.344;16.790;2022-12-26T11:46:50;100144.96;;;11.84;96.18
28701;BME280;15877;52.344;16.790;2022-12-26T11:49:31;100143.27;;;11.97;96.43
28701;BME280;15877;52.344;16.790;2022-12-26T11:52:35;100137.46;;;12.04;95.63
28701;BME280;15877;52.344;16.790;2022-12-26T11:55:27;100135.63;;;12.09;94.91
28701;BME280;15877;52.344;16.790;2022-12-26T11:58:05;100139.06;;;12.19;94.07
28701;BME280;15877;52.344;16.790;2022-12-26T12:01:04;100135.77;;;12.23;93.44
28701;BME280;15877;52.344;16.790;2022-12-26T12:03:40;100136.12;;;12.17;93.46
28701;BME280;15877;52.344;16.790;2022-12-26T12:06:42;100131.80;;;12.31;92.68
28701;BME280;15877;52.344;16.790;2022-12-26T12:09:24;100131.87;;;12.31;92.24
28701;BME280;15877;52.344;16.790;2022-12-26T12:12:05;100127.38;;;12.26;92.23
28701;BME280;15877;52.344;16.790;2022-12-26T12:14:58;100120.11;;;12.16;92.60
28701;BME280;15877;52.344;16.790;2022-12-26T12:17:40;100101.01;;;12.09;92.90
28701;BME280;15877;52.344;16.790;2022-12-26T12:20:27;100109.17;;;12.13;93.13
28701;BME280;15877;52.344;16.790;2022-12-26T12:24:31;100106.91;;;12.18;93.13
28701;BME280;15877;52.344;16.790;2022-12-26T12:27:12;100109.45;;;12.10;93.25
28701;BME280;15877;52.344;16.790;2022-12-26T12:33:05;100100.16;;;12.28;92.38
28701;BME280;15877;52.344;16.790;2022-12-26T12:35:52;100109.33;;;12.14;92.58
28701;BME280;15877;52.344;16.790;2022-12-26T12:38:31;100109.33;;;12.13;93.04
28701;BME280;15877;52.344;16.790;2022-12-26T12:41:14;100110.67;;;12.12;93.11
28701;BME280;15877;52.344;16.790;2022-12-26T12:43:55;100113.38;;;12.12;93.09
28701;BME280;15877;52.344;16.790;2022-12-26T12:46:39;100120.33;;;12.14;92.58
28701;BME280;15877;52.344;16.790;2022-12-26T12:49:24;100120.58;;;12.16;92.25
28701;BME280;15877;52.344;16.790;2022-12-26T12:52:06;100124.20;;;12.20;92.08
28701;BME280;15877;52.344;16.790;2022-12-26T12:55:06;100119.05;;;12.14;91.96
28701;BME280;15877;52.344;16.790;2022-12-26T12:57:51;100118.05;;;12.17;91.72
28701;BME280;15877;52.344;16.790;2022-12-26T13:00:27;100119.12;;;12.21;91.60
28701;BME280;15877;52.344;16.790;2022-12-26T13:03:07;100116.08;;;12.19;91.79
28701;BME280;15877;52.344;16.790;2022-12-26T13:05:58;100108.67;;;12.27;91.29
28701;BME280;15877;52.344;16.790;2022-12-26T13:08:38;100110.55;;;12.16;91.64
28701;BME280;15877;52.344;16.790;2022-12-26T13:11:16;100106.26;;;12.24;91.79
28701;BME280;15877;52.344;16.790;2022-12-26T13:13:55;100111.38;;;12.20;91.73
28701;BME280;15877;52.344;16.790;2022-12-26T13:16:32;100106.48;;;12.13;91.95
28701;BME280;15877;52.344;16.790;2022-12-26T13:19:18;100105.91;;;12.05;92.45
28701;BME280;15877;52.344;16.790;2022-12-26T13:21:53;100111.14;;;12.04;92.41
28701;BME280;15877;52.344;16.790;2022-12-26T13:24:33;100123.60;;;12.08;92.43
28701;BME280;15877;52.344;16.790;2022-12-26T13:27:12;100126.66;;;12.19;91.92
28701;BME280;15877;52.344;16.790;2022-12-26T13:29:47;100128.41;;;12.36;90.89
28701;BME280;15877;52.344;16.790;2022-12-26T13:32:24;100112.79;;;12.42;89.87
28701;BME280;15877;52.344;16.790;2022-12-26T13:35:00;100097.23;;;12.13;90.11
28701;BME280;15877;52.344;16.790;2022-12-26T13:37:56;100110.86;;;12.15;90.71
28701;BME280;15877;52.344;16.790;2022-12-26T13:40:30;100118.40;;;12.29;90.31
28701;BME280;15877;52.344;16.790;2022-12-26T13:43:08;100130.19;;;12.14;90.18
28701;BME280;15877;52.344;16.790;2022-12-26T13:46:03;100127.13;;;12.18;90.30
28701;BME280;15877;52.344;16.790;2022-12-26T13:48:57;100129.09;;;12.01;90.45
28701;BME280;15877;52.344;16.790;2022-12-26T13:51:51;100132.79;;;12.12;90.47
28701;BME280;15877;52.344;16.790;2022-12-26T13:54:26;100134.36;;;12.03;90.25
28701;BME280;15877;52.344;16.790;2022-12-26T13:57:22;100131.06;;;12.06;90.38